Terminal Aerodrome Forecast
Issued by NWS

Current Version | Previous Version | Text Only | Print | Product List | Glossary Off
Versions: 1 2 3 4 5 6 7 8 9 10 11 12 13 14 15 16 17 18 19 20 21 22 23 24 25

000
FTUS41 KPBZ 270200 AAA
TAFMGW
TAF AMD
KMGW 270200Z 2702/2724 10005KT P6SM VCSH BKN100
     FM270500 10008KT 5SM -RA OVC025
     FM271200 13012G18KT 3SM -RA BR OVC012
     FM271800 17012G20KT P6SM VCTS BKN015CB=

USA.gov is the U.S. government's official web portal to all federal, state and local government web resources and services.